Time;durP1;ratioP1;P1;durP2;ratioP2;P2;SDS_P1;SDS_P2;PMS_P1;PMS_P2;Temp;Humidity;BMP_temperature;BMP_pressure;BME280_temperature;BME280_humidity;BME280_pressure;Samples;Min_cycle;Max_cycle;Signal;HPM_P1;HPM_P2
2022/09/06 00:06:38;;;;;;;5.90;5.30;;;;;19.60;98976.00;;;;16372880;29;20198;-49
2022/09/06 00:14:42;;;;;;;7.10;5.40;;;;;19.60;98973.00;;;;16378339;29;20577;-50
2022/09/06 00:22:44;;;;;;;5.47;5.07;;;;;18.80;98977.00;;;;16386813;28;20288;-49
2022/09/06 00:30:48;;;;;;;9.10;5.53;;;;;18.70;98980.00;;;;16380222;29;20643;-49
2022/09/06 00:38:51;;;;;;;7.53;5.90;;;;;18.80;98970.00;;;;16389330;28;20303;-49
2022/09/06 00:46:55;;;;;;;6.10;5.40;;;;;19.00;98968.00;;;;16389737;28;20205;-50
2022/09/06 00:54:58;;;;;;;6.73;6.00;;;;;19.00;98961.00;;;;16390711;29;20205;-49
2022/09/06 01:03:02;;;;;;;7.83;5.57;;;;;18.50;98969.00;;;;16381271;28;20229;-49
2022/09/06 01:11:27;;;;;;;6.10;5.20;;;;;18.50;98976.00;;;;16389995;28;20217;-49
2022/09/06 01:20:08;;;;;;;6.70;5.93;;;;;19.70;98975.00;;;;16393821;28;20229;-49
2022/09/06 01:28:31;;;;;;;6.17;5.67;;;;;19.80;98978.00;;;;16352868;28;20225;-49
2022/09/06 01:36:39;;;;;;;5.73;5.30;;;;;20.00;98984.00;;;;16373905;29;20216;-49
2022/09/06 01:44:45;;;;;;;7.00;5.57;;;;;20.20;98990.00;;;;16383967;29;20237;-49
2022/09/06 01:52:56;;;;;;;6.43;5.93;;;;;20.40;98984.00;;;;16381593;28;20226;-50
2022/09/06 02:01:04;;;;;;;8.20;7.30;;;;;20.60;98990.00;;;;16380027;28;20262;-49
2022/09/06 02:09:09;;;;;;;8.30;7.10;;;;;20.20;98987.00;;;;16383085;28;20221;-49
2022/09/06 02:17:15;;;;;;;6.00;5.53;;;;;19.40;98989.00;;;;16382690;28;20801;-50
2022/09/06 02:25:21;;;;;;;6.17;5.50;;;;;18.40;99023.00;;;;16392879;29;20264;-49
2022/09/06 02:33:28;;;;;;;6.93;5.07;;;;;19.80;99072.00;;;;16382845;28;20262;-50
2022/09/06 02:41:31;;;;;;;8.80;6.33;;;;;21.20;99058.00;;;;16385819;28;20229;-50
2022/09/06 02:49:35;;;;;;;5.90;5.37;;;;;21.50;99040.00;;;;16379433;28;20226;-50
2022/09/06 02:57:37;;;;;;;5.67;5.13;;;;;21.20;99041.00;;;;16386072;28;20788;-49
2022/09/06 03:05:46;;;;;;;5.70;5.20;;;;;20.40;99042.00;;;;16386095;28;20214;-50
2022/09/06 03:13:49;;;;;;;8.27;7.47;;;;;21.20;98997.00;;;;16383303;28;20241;-49
2022/09/06 03:21:53;;;;;;;8.83;8.03;;;;;20.80;98973.00;;;;16381269;28;20225;-50
2022/09/06 03:29:56;;;;;;;13.13;8.03;;;;;19.70;98981.00;;;;16384696;28;20225;-50
2022/09/06 03:38:00;;;;;;;8.47;7.77;;;;;19.10;99007.00;;;;16385653;28;20233;-49
2022/09/06 03:46:02;;;;;;;7.60;6.90;;;;;19.10;99023.00;;;;16378349;29;20210;-49
2022/09/06 03:54:06;;;;;;;8.30;6.97;;;;;19.50;99023.00;;;;16383889;28;20233;-49
2022/09/06 04:02:09;;;;;;;9.73;8.90;;;;;20.00;99023.00;;;;16377658;28;20718;-49
2022/09/06 04:10:12;;;;;;;10.73;9.37;;;;;20.20;99002.00;;;;16389491;28;20225;-50
2022/09/06 04:18:15;;;;;;;10.73;9.60;;;;;20.00;99012.00;;;;16387645;28;20725;-50
2022/09/06 04:26:19;;;;;;;9.87;8.87;;;;;19.70;99016.00;;;;16397683;29;20198;-49
2022/09/06 04:34:22;;;;;;;9.07;8.27;;;;;19.90;99018.00;;;;16381498;29;20696;-50
2022/09/06 04:42:26;;;;;;;9.40;8.60;;;;;20.50;99008.00;;;;16385386;28;20749;-50
2022/09/06 04:50:28;;;;;;;10.00;9.10;;;;;20.60;99007.00;;;;16388909;28;20630;-50
2022/09/06 04:58:41;;;;;;;9.53;8.40;;;;;20.10;99010.00;;;;16379113;28;20484;-50
2022/09/06 05:06:44;;;;;;;9.57;8.63;;;;;19.40;99009.00;;;;16387019;29;20430;-50
2022/09/06 05:14:48;;;;;;;9.90;9.00;;;;;20.20;99006.00;;;;16377118;29;20367;-50
2022/09/06 05:22:53;;;;;;;8.70;7.87;;;;;20.20;99023.00;;;;16392661;29;20284;-51
2022/09/06 05:31:07;;;;;;;9.03;8.13;;;;;19.80;99044.00;;;;16382797;28;20718;-50
2022/09/06 05:39:09;;;;;;;8.40;7.47;;;;;20.50;99025.00;;;;16372016;28;20312;-49
2022/09/06 05:47:13;;;;;;;8.63;7.73;;;;;20.30;99037.00;;;;16377783;28;20758;-50
2022/09/06 05:55:16;;;;;;;9.50;8.70;;;;;19.80;99048.00;;;;16374619;29;20245;-49
2022/09/06 06:03:19;;;;;;;8.30;7.43;;;;;20.80;99038.00;;;;16372896;28;20228;-50
2022/09/06 06:11:22;;;;;;;8.83;7.83;;;;;21.70;99037.00;;;;16381765;28;20255;-50
2022/09/06 06:19:26;;;;;;;9.83;8.70;;;;;22.10;99041.00;;;;16378501;29;20235;-50
2022/09/06 06:27:28;;;;;;;9.20;8.30;;;;;21.60;99031.00;;;;16387393;28;20956;-50
2022/09/06 06:35:32;;;;;;;8.77;7.73;;;;;22.10;99031.00;;;;16383410;28;20773;-50
2022/09/06 06:43:36;;;;;;;11.60;7.33;;;;;21.50;99031.00;;;;16375519;29;20272;-51
2022/09/06 06:51:40;;;;;;;9.07;7.07;;;;;22.90;99049.00;;;;16371389;28;20373;-50
2022/09/06 06:59:42;;;;;;;8.83;6.27;;;;;24.20;99039.00;;;;16363774;29;20218;-50
2022/09/06 07:07:46;;;;;;;7.30;6.60;;;;;23.90;99031.00;;;;16363295;29;20307;-50
2022/09/06 07:15:49;;;;;;;6.67;6.07;;;;;24.30;99020.00;;;;16382266;29;20619;-50
2022/09/06 07:23:53;;;;;;;8.63;7.80;;;;;23.60;99020.00;;;;16380166;29;20263;-50
2022/09/06 07:31:56;;;;;;;8.43;7.57;;;;;23.90;99038.00;;;;16380886;29;20222;-49
2022/09/06 07:40:00;;;;;;;9.37;8.40;;;;;24.10;99019.00;;;;16373947;29;20233;-50
2022/09/06 07:48:03;;;;;;;10.30;7.83;;;;;24.00;99026.00;;;;16372742;28;20627;-49
2022/09/06 07:56:08;;;;;;;6.67;6.07;;;;;25.00;99024.00;;;;16384743;29;20275;-50
2022/09/06 08:04:12;;;;;;;8.37;6.20;;;;;25.80;99004.00;;;;16387136;29;20300;-50
2022/09/06 08:12:16;;;;;;;7.27;5.70;;;;;24.70;99000.00;;;;16388478;29;20266;-50
2022/09/06 08:20:19;;;;;;;5.60;5.10;;;;;24.60;99009.00;;;;16385019;28;20233;-49
2022/09/06 08:28:22;;;;;;;7.13;6.47;;;;;25.60;99011.00;;;;16389281;28;20665;-50
2022/09/06 08:36:28;;;;;;;7.90;6.87;;;;;25.60;99005.00;;;;16386654;29;20291;-50
2022/09/06 08:44:34;;;;;;;7.80;7.03;;;;;25.30;99000.00;;;;16398008;28;20229;-49
2022/09/06 08:52:50;;;;;;;6.50;5.90;;;;;26.10;98980.00;;;;16371959;29;20289;-50
2022/09/06 09:00:58;;;;;;;8.90;8.00;;;;;26.10;98978.00;;;;16386210;28;20226;-50
2022/09/06 09:09:03;;;;;;;7.27;5.67;;;;;28.00;98964.00;;;;16390123;28;20222;-50
2022/09/06 09:17:15;;;;;;;10.73;8.30;;;;;27.50;98967.00;;;;16397666;28;20710;-50
2022/09/06 09:25:21;;;;;;;6.93;6.23;;;;;27.00;98958.00;;;;16378310;29;20209;-50
2022/09/06 09:33:31;;;;;;;6.70;5.33;;;;;29.30;98956.00;;;;16375306;28;20258;-50
2022/09/06 09:41:37;;;;;;;8.60;4.90;;;;;28.00;98956.00;;;;16395465;28;20924;-50
2022/09/06 09:49:41;;;;;;;8.23;4.77;;;;;28.20;98962.00;;;;16383408;28;20225;-50
2022/09/06 09:57:46;;;;;;;7.00;3.43;;;;;28.60;98948.00;;;;16379996;28;20316;-49
2022/09/06 10:05:59;;;;;;;8.37;4.00;;;;;28.80;98938.00;;;;16378870;29;20228;-50
2022/09/06 10:14:11;;;;;;;4.43;4.00;;;;;29.80;98936.00;;;;16386611;28;20717;-50
2022/09/06 10:22:29;;;;;;;5.23;4.10;;;;;30.10;98931.00;;;;16385392;28;20602;-50
2022/09/06 10:30:33;;;;;;;7.13;3.93;;;;;30.00;98925.00;;;;16384837;29;20300;-51
2022/09/06 10:38:53;;;;;;;5.00;3.50;;;;;30.20;98923.00;;;;16389839;28;20237;-50
2022/09/06 10:47:00;;;;;;;5.10;3.40;;;;;30.10;98920.00;;;;16390388;29;20631;-50
2022/09/06 10:55:04;;;;;;;6.57;4.63;;;;;29.90;98916.00;;;;16365765;29;20220;-50
2022/09/06 11:03:14;;;;;;;7.53;4.00;;;;;30.20;98903.00;;;;16381301;28;20241;-50
2022/09/06 11:11:22;;;;;;;7.83;4.40;;;;;30.10;98897.00;;;;16388837;28;20339;-50
2022/09/06 11:27:42;;;;;;;7.20;4.57;;;;;29.60;98901.00;;;;16318301;29;20221;-49
2022/09/06 11:35:44;;;;;;;9.37;5.10;;;;;30.00;98907.00;;;;16326012;29;20316;-49
2022/09/06 11:43:50;;;;;;;5.90;4.70;;;;;30.10;98906.00;;;;16325482;29;20229;-49
2022/09/06 11:51:52;;;;;;;4.90;4.20;;;;;30.30;98901.00;;;;16326533;29;20273;-49
2022/09/06 12:00:00;;;;;;;11.13;3.83;;;;;31.00;98893.00;;;;16325135;29;20353;-49
2022/09/06 12:08:23;;;;;;;4.43;3.90;;;;;32.50;98879.00;;;;16326306;29;20202;-49
2022/09/06 12:17:05;;;;;;;5.33;4.00;;;;;31.00;98865.00;;;;16326995;29;20311;-50
2022/09/06 12:25:16;;;;;;;9.77;4.90;;;;;32.20;98867.00;;;;16318778;29;20490;-49
2022/09/06 12:33:24;;;;;;;5.53;3.80;;;;;33.00;98860.00;;;;16324438;29;20563;-50
2022/09/06 12:41:30;;;;;;;10.17;4.10;;;;;32.70;98870.00;;;;16335986;29;20629;-49
2022/09/06 12:49:32;;;;;;;8.80;4.27;;;;;32.20;98871.00;;;;16335887;29;20206;-50
2022/09/06 12:57:36;;;;;;;5.40;3.90;;;;;31.80;98869.00;;;;16335535;29;20738;-49
2022/09/06 13:05:40;;;;;;;6.10;4.60;;;;;30.00;98865.00;;;;16334989;29;20314;-48
2022/09/06 13:13:48;;;;;;;11.63;5.30;;;;;29.10;98870.00;;;;16334674;28;20334;-49
2022/09/06 13:21:50;;;;;;;8.97;5.73;;;;;28.90;98871.00;;;;16327172;29;20237;-50
2022/09/06 13:29:59;;;;;;;8.40;5.23;;;;;29.10;98878.00;;;;16331603;29;20217;-48
2022/09/06 13:38:22;;;;;;;9.10;5.13;;;;;29.70;98873.00;;;;16336568;29;20229;-50
2022/09/06 13:46:26;;;;;;;7.80;5.73;;;;;28.30;98866.00;;;;16329140;29;20645;-50
2022/09/06 13:54:29;;;;;;;8.10;4.57;;;;;27.90;98853.00;;;;16331740;29;20313;-49
2022/09/06 14:02:33;;;;;;;8.30;5.87;;;;;27.40;98830.00;;;;16330727;29;20737;-49
2022/09/06 14:10:36;;;;;;;7.80;5.70;;;;;27.90;98826.00;;;;16328552;29;20221;-50
2022/09/06 14:18:40;;;;;;;6.70;5.90;;;;;26.80;98823.00;;;;16316111;29;20317;-49
2022/09/06 14:26:42;;;;;;;6.33;5.63;;;;;27.30;98814.00;;;;16308375;29;20244;-48
2022/09/06 14:34:48;;;;;;;5.67;5.13;;;;;26.80;98823.00;;;;16312577;29;20352;-49
2022/09/06 14:42:50;;;;;;;9.77;5.90;;;;;26.80;98839.00;;;;16319603;29;20226;-49
2022/09/06 14:50:54;;;;;;;7.47;6.07;;;;;26.40;98842.00;;;;16323081;29;20222;-48
2022/09/06 14:58:58;;;;;;;8.00;5.23;;;;;26.90;98837.00;;;;16324389;29;20225;-48
2022/09/06 15:07:02;;;;;;;7.20;6.47;;;;;27.10;98830.00;;;;16327561;29;20685;-49
2022/09/06 15:15:06;;;;;;;6.57;5.60;;;;;27.70;98823.00;;;;16325339;29;20281;-49
2022/09/06 15:23:10;;;;;;;6.50;5.87;;;;;28.10;98810.00;;;;16324139;29;20615;-48
2022/09/06 15:31:13;;;;;;;8.50;6.60;;;;;28.90;98781.00;;;;16310246;29;20221;-49
2022/09/06 15:39:18;;;;;;;8.37;5.50;;;;;31.50;98761.00;;;;16310017;28;20229;-49
2022/09/06 15:47:20;;;;;;;7.07;4.30;;;;;32.60;98756.00;;;;16317874;29;20249;-49
2022/09/06 16:03:45;;;;;;;9.53;5.37;;;;;30.50;98748.00;;;;16313329;29;20238;-48
2022/09/06 16:11:49;;;;;;;9.27;4.70;;;;;30.10;98734.00;;;;16325022;29;20221;-49
2022/09/06 16:19:52;;;;;;;8.73;6.50;;;;;29.90;98728.00;;;;16323718;29;20226;-49
2022/09/06 16:27:56;;;;;;;7.53;5.17;;;;;30.40;98706.00;;;;16331320;29;20206;-50
2022/09/06 16:36:00;;;;;;;6.27;4.77;;;;;29.40;98717.00;;;;16312286;29;20704;-48
2022/09/06 16:44:04;;;;;;;9.20;5.90;;;;;29.30;98731.00;;;;16318238;29;20503;-49
2022/09/06 16:52:06;;;;;;;5.63;4.57;;;;;29.10;98739.00;;;;16318676;29;20499;-49
2022/09/06 17:00:13;;;;;;;7.27;4.23;;;;;29.20;98726.00;;;;16313228;29;20229;-48
2022/09/06 17:08:16;;;;;;;6.10;4.90;;;;;29.20;98727.00;;;;16329870;29;20300;-49
2022/09/06 17:24:41;;;;;;;5.70;4.63;;;;;30.20;98729.00;;;;16328054;29;20233;-49
2022/09/06 17:32:45;;;;;;;9.60;6.90;;;;;26.30;98727.00;;;;16321366;29;20226;-48
2022/09/06 17:41:01;;;;;;;7.77;6.97;;;;;25.40;98731.00;;;;16316810;29;20432;-48
2022/09/06 17:49:05;;;;;;;6.30;5.70;;;;;24.90;98728.00;;;;16329755;29;20199;-49
2022/09/06 17:57:07;;;;;;;8.10;7.30;;;;;24.30;98722.00;;;;16376032;23;21865;-49
2022/09/06 18:05:11;;;;;;;7.93;6.93;;;;;24.00;98727.00;;;;16456856;28;20228;-50
2022/09/06 18:13:14;;;;;;;7.90;6.23;;;;;23.90;98732.00;;;;16379982;28;20225;-48
2022/09/06 18:21:18;;;;;;;13.53;7.60;;;;;23.30;98714.00;;;;16378945;28;20243;-47
2022/09/06 18:29:21;;;;;;;9.20;7.23;;;;;23.30;98721.00;;;;16378233;28;20276;-48
2022/09/06 18:37:25;;;;;;;8.63;6.60;;;;;22.90;98737.00;;;;16380208;28;20221;-49
2022/09/06 18:45:27;;;;;;;7.57;6.80;;;;;23.00;98743.00;;;;16372426;28;20565;-48
2022/09/06 18:53:32;;;;;;;8.40;6.60;;;;;23.00;98739.00;;;;16375064;28;20213;-49
2022/09/06 19:01:35;;;;;;;9.33;7.30;;;;;22.30;98752.00;;;;16377602;28;20415;-49
2022/09/06 19:09:40;;;;;;;9.37;6.50;;;;;22.40;98747.00;;;;16377569;28;20229;-50
2022/09/06 19:17:42;;;;;;;10.90;7.07;;;;;22.10;98745.00;;;;16370110;28;20238;-47
2022/09/06 19:25:46;;;;;;;6.60;6.00;;;;;22.30;98741.00;;;;16376311;28;20827;-49
2022/09/06 19:33:50;;;;;;;7.37;6.67;;;;;22.50;98733.00;;;;16389111;28;20578;-50
2022/09/06 19:41:53;;;;;;;8.50;6.70;;;;;22.00;98746.00;;;;16392715;28;20232;-49
2022/09/06 19:49:56;;;;;;;8.60;6.40;;;;;21.80;98741.00;;;;16402668;28;20244;-49
2022/09/06 19:58:00;;;;;;;8.00;5.50;;;;;21.90;98746.00;;;;16410575;28;20225;-49
2022/09/06 20:06:03;;;;;;;6.37;5.63;;;;;22.00;98741.00;;;;16401319;28;20225;-50
2022/09/06 20:14:08;;;;;;;6.03;5.43;;;;;23.40;98723.00;;;;16411479;28;20683;-48
2022/09/06 20:22:12;;;;;;;9.40;6.17;;;;;23.60;98704.00;;;;16414833;28;20225;-49
2022/09/06 20:30:16;;;;;;;6.00;5.20;;;;;23.70;98691.00;;;;16406913;28;20222;-49
2022/09/06 20:38:18;;;;;;;6.07;5.10;;;;;22.90;98693.00;;;;16405321;28;20586;-49
2022/09/06 20:46:24;;;;;;;7.67;5.10;;;;;22.50;98705.00;;;;16416123;28;20244;-50
2022/09/06 20:54:26;;;;;;;7.93;6.13;;;;;21.80;98720.00;;;;16389215;28;20220;-48
2022/09/06 21:02:30;;;;;;;6.80;5.80;;;;;21.90;98721.00;;;;16391824;28;20237;-50
2022/09/06 21:10:33;;;;;;;7.10;6.27;;;;;21.60;98726.00;;;;16390366;28;20782;-48
2022/09/06 21:18:37;;;;;;;7.83;6.20;;;;;21.40;98739.00;;;;16384460;28;20276;-49
2022/09/06 21:26:41;;;;;;;6.87;6.27;;;;;20.90;98750.00;;;;16403764;28;20225;-49
2022/09/06 21:34:45;;;;;;;6.80;5.73;;;;;21.70;98748.00;;;;16400689;28;20211;-50
2022/09/06 21:42:48;;;;;;;8.20;5.90;;;;;22.10;98741.00;;;;16397766;28;20616;-48
2022/09/06 21:50:52;;;;;;;6.70;5.97;;;;;22.40;98725.00;;;;16395063;28;20286;-50
2022/09/06 21:58:56;;;;;;;7.20;5.87;;;;;22.60;98713.00;;;;16399766;28;20587;-48
2022/09/06 22:06:59;;;;;;;6.13;5.03;;;;;22.00;98717.00;;;;16415652;28;20594;-49
2022/09/06 22:15:02;;;;;;;7.57;5.57;;;;;22.50;98723.00;;;;16452087;28;20200;-49
2022/09/06 22:23:08;;;;;;;4.97;4.50;;;;;21.70;98718.00;;;;16437633;28;20224;-49
2022/09/06 22:31:11;;;;;;;6.17;4.70;;;;;21.90;98725.00;;;;16450259;28;20272;-48
2022/09/06 22:39:15;;;;;;;7.00;5.90;;;;;20.40;98733.00;;;;16420440;28;20224;-48
2022/09/06 22:47:17;;;;;;;5.90;5.20;;;;;21.40;98709.00;;;;16422920;28;20304;-49
2022/09/06 22:55:21;;;;;;;6.63;4.97;;;;;22.20;98698.00;;;;16393872;28;20220;-48
2022/09/06 23:03:24;;;;;;;5.20;4.57;;;;;21.90;98702.00;;;;16389989;28;20237;-49
2022/09/06 23:11:28;;;;;;;8.00;4.13;;;;;21.80;98707.00;;;;16440992;28;20217;-49
2022/09/06 23:19:30;;;;;;;5.60;4.30;;;;;21.40;98681.00;;;;16387434;28;20225;-49
2022/09/06 23:27:35;;;;;;;4.50;3.97;;;;;21.90;98685.00;;;;16418661;28;20236;-49
2022/09/06 23:35:38;;;;;;;4.23;3.83;;;;;21.30;98685.00;;;;16401238;28;20264;-49
2022/09/06 23:43:43;;;;;;;5.20;3.97;;;;;22.00;98686.00;;;;16391774;28;20233;-50
2022/09/06 23:51:45;;;;;;;4.20;3.80;;;;;21.80;98682.00;;;;16395413;28;20217;-49
2022/09/06 23:59:49;;;;;;;6.57;4.63;;;;;21.70;98674.00;;;;16392947;28;20228;-49
